sensor_id;sensor_type;location;lat;lon;timestamp;temperature;humidity
4727;DHT22;2377;51.734;8.950;2023-04-10T00:02:14;6.30;1.00
4727;DHT22;2377;51.734;8.950;2023-04-10T00:04:41;6.30;1.00
4727;DHT22;2377;51.734;8.950;2023-04-10T00:07:08;6.30;1.00
4727;DHT22;2377;51.734;8.950;2023-04-10T00:09:36;6.30;1.00
4727;DHT22;2377;51.734;8.950;2023-04-10T00:12:03;6.30;1.00
4727;DHT22;2377;51.734;8.950;2023-04-10T00:14:31;6.30;1.00
4727;DHT22;2377;51.734;8.950;2023-04-10T00:16:58;6.20;1.00
4727;DHT22;2377;51.734;8.950;2023-04-10T00:19:25;6.20;1.00
4727;DHT22;2377;51.734;8.950;2023-04-10T00:21:52;6.20;1.00
4727;DHT22;2377;51.734;8.950;2023-04-10T00:24:19;6.10;1.00
4727;DHT22;2377;51.734;8.950;2023-04-10T00:26:47;6.10;1.00
4727;DHT22;2377;51.734;8.950;2023-04-10T00:29:14;6.10;1.00
4727;DHT22;2377;51.734;8.950;2023-04-10T00:31:41;6.10;1.00
4727;DHT22;2377;51.734;8.950;2023-04-10T00:34:08;6.10;1.00
4727;DHT22;2377;51.734;8.950;2023-04-10T00:36:34;6.00;1.00
4727;DHT22;2377;51.734;8.950;2023-04-10T00:39:01;6.10;1.00
4727;DHT22;2377;51.734;8.950;2023-04-10T00:41:28;6.00;1.00
4727;DHT22;2377;51.734;8.950;2023-04-10T00:43:57;6.00;1.00
4727;DHT22;2377;51.734;8.950;2023-04-10T00:46:24;6.00;1.00
4727;DHT22;2377;51.734;8.950;2023-04-10T00:48:52;5.90;1.00
4727;DHT22;2377;51.734;8.950;2023-04-10T00:51:21;5.80;1.00
4727;DHT22;2377;51.734;8.950;2023-04-10T00:53:49;5.80;1.00
4727;DHT22;2377;51.734;8.950;2023-04-10T00:56:17;5.80;1.00
4727;DHT22;2377;51.734;8.950;2023-04-10T00:58:45;5.70;1.00
4727;DHT22;2377;51.734;8.950;2023-04-10T01:01:13;5.60;1.00
4727;DHT22;2377;51.734;8.950;2023-04-10T01:03:41;5.60;1.00
4727;DHT22;2377;51.734;8.950;2023-04-10T01:06:17;5.60;1.00
4727;DHT22;2377;51.734;8.950;2023-04-10T01:08:58;5.50;1.00
4727;DHT22;2377;51.734;8.950;2023-04-10T01:11:43;5.50;1.00
4727;DHT22;2377;51.734;8.950;2023-04-10T01:14:26;5.40;1.00
4727;DHT22;2377;51.734;8.950;2023-04-10T01:17:03;5.40;1.00
4727;DHT22;2377;51.734;8.950;2023-04-10T01:20:01;5.30;1.00
4727;DHT22;2377;51.734;8.950;2023-04-10T01:22:35;5.30;1.00
4727;DHT22;2377;51.734;8.950;2023-04-10T01:25:29;5.20;1.00
4727;DHT22;2377;51.734;8.950;2023-04-10T01:28:15;5.20;1.10
4727;DHT22;2377;51.734;8.950;2023-04-10T01:30:54;5.10;1.80
4727;DHT22;2377;51.734;8.950;2023-04-10T01:33:28;5.10;2.60
4727;DHT22;2377;51.734;8.950;2023-04-10T01:36:02;5.10;3.70
4727;DHT22;2377;51.734;8.950;2023-04-10T01:38:32;5.00;1.00
4727;DHT22;2377;51.734;8.950;2023-04-10T01:41:00;4.90;1.00
4727;DHT22;2377;51.734;8.950;2023-04-10T01:43:28;4.80;1.20
4727;DHT22;2377;51.734;8.950;2023-04-10T01:46:00;4.80;4.20
4727;DHT22;2377;51.734;8.950;2023-04-10T01:48:29;4.60;4.50
4727;DHT22;2377;51.734;8.950;2023-04-10T01:50:57;4.60;7.50
4727;DHT22;2377;51.734;8.950;2023-04-10T01:53:27;4.50;11.30
4727;DHT22;2377;51.734;8.950;2023-04-10T01:55:57;4.50;13.60
4727;DHT22;2377;51.734;8.950;2023-04-10T01:58:25;4.50;16.40
4727;DHT22;2377;51.734;8.950;2023-04-10T02:00:52;4.40;16.90
4727;DHT22;2377;51.734;8.950;2023-04-10T02:03:20;4.40;16.90
4727;DHT22;2377;51.734;8.950;2023-04-10T02:05:54;4.30;16.20
4727;DHT22;2377;51.734;8.950;2023-04-10T02:08:32;4.30;18.30
4727;DHT22;2377;51.734;8.950;2023-04-10T02:11:05;4.30;22.20
4727;DHT22;2377;51.734;8.950;2023-04-10T02:13:39;4.30;23.00
4727;DHT22;2377;51.734;8.950;2023-04-10T02:16:13;4.30;22.80
4727;DHT22;2377;51.734;8.950;2023-04-10T02:18:46;4.30;19.30
4727;DHT22;2377;51.734;8.950;2023-04-10T02:21:15;4.30;19.10
4727;DHT22;2377;51.734;8.950;2023-04-10T02:23:42;4.30;22.50
4727;DHT22;2377;51.734;8.950;2023-04-10T02:26:09;4.30;22.20
4727;DHT22;2377;51.734;8.950;2023-04-10T02:28:37;4.30;20.80
4727;DHT22;2377;51.734;8.950;2023-04-10T02:31:05;4.30;20.20
4727;DHT22;2377;51.734;8.950;2023-04-10T02:33:32;4.30;19.80
4727;DHT22;2377;51.734;8.950;2023-04-10T02:36:00;4.30;19.30
4727;DHT22;2377;51.734;8.950;2023-04-10T02:38:27;4.30;20.20
4727;DHT22;2377;51.734;8.950;2023-04-10T02:40:54;4.30;22.00
4727;DHT22;2377;51.734;8.950;2023-04-10T02:43:21;4.30;23.30
4727;DHT22;2377;51.734;8.950;2023-04-10T02:45:48;4.30;25.50
4727;DHT22;2377;51.734;8.950;2023-04-10T02:48:15;4.30;26.10
4727;DHT22;2377;51.734;8.950;2023-04-10T02:50:42;4.20;25.40
4727;DHT22;2377;51.734;8.950;2023-04-10T02:53:12;4.20;27.20
4727;DHT22;2377;51.734;8.950;2023-04-10T02:55:41;4.20;28.50
4727;DHT22;2377;51.734;8.950;2023-04-10T02:58:08;4.20;28.00
4727;DHT22;2377;51.734;8.950;2023-04-10T03:00:36;4.20;30.40
4727;DHT22;2377;51.734;8.950;2023-04-10T03:03:03;4.20;34.50
4727;DHT22;2377;51.734;8.950;2023-04-10T03:05:30;4.10;36.30
4727;DHT22;2377;51.734;8.950;2023-04-10T03:07:57;4.10;36.90
4727;DHT22;2377;51.734;8.950;2023-04-10T03:10:26;4.10;41.70
4727;DHT22;2377;51.734;8.950;2023-04-10T03:12:53;4.20;40.90
4727;DHT22;2377;51.734;8.950;2023-04-10T03:15:20;4.20;43.20
4727;DHT22;2377;51.734;8.950;2023-04-10T03:17:47;4.30;40.80
4727;DHT22;2377;51.734;8.950;2023-04-10T03:20:14;4.20;47.40
4727;DHT22;2377;51.734;8.950;2023-04-10T03:22:41;4.20;44.70
4727;DHT22;2377;51.734;8.950;2023-04-10T03:25:08;4.30;55.20
4727;DHT22;2377;51.734;8.950;2023-04-10T03:27:37;4.30;49.80
4727;DHT22;2377;51.734;8.950;2023-04-10T03:30:05;4.30;43.60
4727;DHT22;2377;51.734;8.950;2023-04-10T03:32:33;4.30;46.60
4727;DHT22;2377;51.734;8.950;2023-04-10T03:35:00;4.30;53.50
4727;DHT22;2377;51.734;8.950;2023-04-10T03:37:27;4.30;56.40
4727;DHT22;2377;51.734;8.950;2023-04-10T03:39:54;4.30;54.00
4727;DHT22;2377;51.734;8.950;2023-04-10T03:42:21;4.30;50.10
4727;DHT22;2377;51.734;8.950;2023-04-10T03:44:50;4.20;56.60
4727;DHT22;2377;51.734;8.950;2023-04-10T03:47:17;4.20;62.00
4727;DHT22;2377;51.734;8.950;2023-04-10T03:49:44;4.20;61.20
4727;DHT22;2377;51.734;8.950;2023-04-10T03:52:11;4.20;68.70
4727;DHT22;2377;51.734;8.950;2023-04-10T03:54:37;4.20;67.60
4727;DHT22;2377;51.734;8.950;2023-04-10T03:57:04;4.30;56.00
4727;DHT22;2377;51.734;8.950;2023-04-10T03:59:31;4.30;53.50
4727;DHT22;2377;51.734;8.950;2023-04-10T04:02:00;4.30;45.80
4727;DHT22;2377;51.734;8.950;2023-04-10T04:04:26;4.20;59.80
4727;DHT22;2377;51.734;8.950;2023-04-10T04:06:55;4.10;59.90
4727;DHT22;2377;51.734;8.950;2023-04-10T04:09:22;4.10;63.90
4727;DHT22;2377;51.734;8.950;2023-04-10T04:11:49;4.10;57.70
4727;DHT22;2377;51.734;8.950;2023-04-10T04:14:16;4.10;66.40
4727;DHT22;2377;51.734;8.950;2023-04-10T04:16:43;4.10;62.60
4727;DHT22;2377;51.734;8.950;2023-04-10T04:19:11;4.10;74.30
4727;DHT22;2377;51.734;8.950;2023-04-10T04:21:38;4.10;82.30
4727;DHT22;2377;51.734;8.950;2023-04-10T04:24:05;4.20;65.40
4727;DHT22;2377;51.734;8.950;2023-04-10T04:26:32;4.20;74.70
4727;DHT22;2377;51.734;8.950;2023-04-10T04:28:59;4.30;73.50
4727;DHT22;2377;51.734;8.950;2023-04-10T04:31:26;4.30;70.20
4727;DHT22;2377;51.734;8.950;2023-04-10T04:33:56;4.30;73.90
4727;DHT22;2377;51.734;8.950;2023-04-10T04:36:25;4.30;68.90
4727;DHT22;2377;51.734;8.950;2023-04-10T04:38:53;4.30;72.60
4727;DHT22;2377;51.734;8.950;2023-04-10T04:41:20;4.30;71.30
4727;DHT22;2377;51.734;8.950;2023-04-10T04:43:47;4.30;72.70
4727;DHT22;2377;51.734;8.950;2023-04-10T04:46:14;4.30;76.90
4727;DHT22;2377;51.734;8.950;2023-04-10T04:48:41;4.40;68.40
4727;DHT22;2377;51.734;8.950;2023-04-10T04:51:08;4.40;65.50
4727;DHT22;2377;51.734;8.950;2023-04-10T04:53:36;4.50;68.10
4727;DHT22;2377;51.734;8.950;2023-04-10T04:56:03;4.50;60.30
4727;DHT22;2377;51.734;8.950;2023-04-10T04:58:31;4.50;56.50
4727;DHT22;2377;51.734;8.950;2023-04-10T05:00:57;4.50;58.90
4727;DHT22;2377;51.734;8.950;2023-04-10T05:03:24;4.50;64.20
4727;DHT22;2377;51.734;8.950;2023-04-10T05:05:52;4.50;64.10
4727;DHT22;2377;51.734;8.950;2023-04-10T05:08:20;4.50;65.90
4727;DHT22;2377;51.734;8.950;2023-04-10T05:10:48;4.60;61.70
4727;DHT22;2377;51.734;8.950;2023-04-10T05:13:15;4.60;54.80
4727;DHT22;2377;51.734;8.950;2023-04-10T05:15:42;4.70;43.50
4727;DHT22;2377;51.734;8.950;2023-04-10T05:18:09;4.80;47.70
4727;DHT22;2377;51.734;8.950;2023-04-10T05:20:38;4.90;48.90
4727;DHT22;2377;51.734;8.950;2023-04-10T05:23:05;5.00;49.00
4727;DHT22;2377;51.734;8.950;2023-04-10T05:25:32;5.00;47.80
4727;DHT22;2377;51.734;8.950;2023-04-10T05:28:00;5.10;42.20
4727;DHT22;2377;51.734;8.950;2023-04-10T05:30:27;5.10;43.20
4727;DHT22;2377;51.734;8.950;2023-04-10T05:32:54;5.20;49.40
4727;DHT22;2377;51.734;8.950;2023-04-10T05:35:21;5.30;48.40
4727;DHT22;2377;51.734;8.950;2023-04-10T05:37:48;5.30;51.40
4727;DHT22;2377;51.734;8.950;2023-04-10T05:40:15;5.30;47.10
4727;DHT22;2377;51.734;8.950;2023-04-10T05:42:42;5.40;50.80
4727;DHT22;2377;51.734;8.950;2023-04-10T05:45:10;5.50;41.60
4727;DHT22;2377;51.734;8.950;2023-04-10T05:47:39;5.60;38.70
4727;DHT22;2377;51.734;8.950;2023-04-10T05:50:06;5.80;36.90
4727;DHT22;2377;51.734;8.950;2023-04-10T05:52:33;5.80;32.60
4727;DHT22;2377;51.734;8.950;2023-04-10T05:55:01;6.00;29.70
4727;DHT22;2377;51.734;8.950;2023-04-10T05:57:28;6.00;28.90
4727;DHT22;2377;51.734;8.950;2023-04-10T05:59:55;6.10;21.40
4727;DHT22;2377;51.734;8.950;2023-04-10T06:02:23;6.20;21.50
4727;DHT22;2377;51.734;8.950;2023-04-10T06:04:51;6.30;18.40
4727;DHT22;2377;51.734;8.950;2023-04-10T06:07:18;6.40;15.20
4727;DHT22;2377;51.734;8.950;2023-04-10T06:09:45;6.50;12.70
4727;DHT22;2377;51.734;8.950;2023-04-10T06:12:12;6.60;8.90
4727;DHT22;2377;51.734;8.950;2023-04-10T06:14:39;6.70;9.30
4727;DHT22;2377;51.734;8.950;2023-04-10T06:17:06;6.80;6.80
4727;DHT22;2377;51.734;8.950;2023-04-10T06:19:34;6.90;6.50
4727;DHT22;2377;51.734;8.950;2023-04-10T06:22:01;7.00;2.80
4727;DHT22;2377;51.734;8.950;2023-04-10T06:24:28;7.10;1.00
4727;DHT22;2377;51.734;8.950;2023-04-10T06:26:55;7.20;1.00
4727;DHT22;2377;51.734;8.950;2023-04-10T06:29:22;7.30;1.00
4727;DHT22;2377;51.734;8.950;2023-04-10T06:31:49;7.50;1.00
4727;DHT22;2377;51.734;8.950;2023-04-10T06:34:16;7.60;1.00
4727;DHT22;2377;51.734;8.950;2023-04-10T06:36:44;7.80;1.00
4727;DHT22;2377;51.734;8.950;2023-04-10T06:39:11;8.00;1.00
4727;DHT22;2377;51.734;8.950;2023-04-10T06:41:38;8.10;1.00
4727;DHT22;2377;51.734;8.950;2023-04-10T06:44:05;8.30;1.00
4727;DHT22;2377;51.734;8.950;2023-04-10T06:46:32;8.50;1.00
4727;DHT22;2377;51.734;8.950;2023-04-10T06:48:58;8.60;1.00
4727;DHT22;2377;51.734;8.950;2023-04-10T06:51:25;8.60;1.00
4727;DHT22;2377;51.734;8.950;2023-04-10T06:53:54;8.70;1.00
4727;DHT22;2377;51.734;8.950;2023-04-10T06:56:21;8.80;1.00
4727;DHT22;2377;51.734;8.950;2023-04-10T06:58:48;8.80;1.00
4727;DHT22;2377;51.734;8.950;2023-04-10T07:01:14;8.80;1.00
4727;DHT22;2377;51.734;8.950;2023-04-10T07:03:42;8.80;1.00
4727;DHT22;2377;51.734;8.950;2023-04-10T07:06:09;8.80;1.00
4727;DHT22;2377;51.734;8.950;2023-04-10T07:08:36;8.80;1.00
4727;DHT22;2377;51.734;8.950;2023-04-10T07:11:05;8.80;1.00
4727;DHT22;2377;51.734;8.950;2023-04-10T07:13:32;8.90;1.00
4727;DHT22;2377;51.734;8.950;2023-04-10T07:15:59;9.00;1.00
4727;DHT22;2377;51.734;8.950;2023-04-10T07:18:26;9.00;1.00
4727;DHT22;2377;51.734;8.950;2023-04-10T07:20:53;9.20;1.00
4727;DHT22;2377;51.734;8.950;2023-04-10T07:23:20;9.30;1.00
4727;DHT22;2377;51.734;8.950;2023-04-10T07:25:47;9.50;1.00
4727;DHT22;2377;51.734;8.950;2023-04-10T07:28:15;9.60;1.00
4727;DHT22;2377;51.734;8.950;2023-04-10T07:30:42;9.80;1.00
4727;DHT22;2377;51.734;8.950;2023-04-10T07:33:09;10.00;1.00
4727;DHT22;2377;51.734;8.950;2023-04-10T07:35:36;10.10;1.00
4727;DHT22;2377;51.734;8.950;2023-04-10T07:38:03;10.20;1.00
4727;DHT22;2377;51.734;8.950;2023-04-10T07:40:30;10.40;1.00
4727;DHT22;2377;51.734;8.950;2023-04-10T07:42:57;10.60;1.00
4727;DHT22;2377;51.734;8.950;2023-04-10T07:45:28;10.70;1.00
4727;DHT22;2377;51.734;8.950;2023-04-10T07:47:55;10.80;1.00
4727;DHT22;2377;51.734;8.950;2023-04-10T07:50:23;11.10;1.00
4727;DHT22;2377;51.734;8.950;2023-04-10T07:52:50;11.30;1.00
4727;DHT22;2377;51.734;8.950;2023-04-10T07:55:18;11.50;1.00
4727;DHT22;2377;51.734;8.950;2023-04-10T07:57:44;11.60;1.00
4727;DHT22;2377;51.734;8.950;2023-04-10T08:00:12;11.80;1.00
4727;DHT22;2377;51.734;8.950;2023-04-10T08:02:41;11.90;1.00
4727;DHT22;2377;51.734;8.950;2023-04-10T08:05:08;12.00;1.00
4727;DHT22;2377;51.734;8.950;2023-04-10T08:07:35;12.10;1.00
4727;DHT22;2377;51.734;8.950;2023-04-10T08:10:03;12.30;1.00
4727;DHT22;2377;51.734;8.950;2023-04-10T08:12:32;12.30;1.00
4727;DHT22;2377;51.734;8.950;2023-04-10T08:14:59;12.40;1.00
4727;DHT22;2377;51.734;8.950;2023-04-10T08:17:26;12.60;1.00
4727;DHT22;2377;51.734;8.950;2023-04-10T08:19:54;12.80;1.00
4727;DHT22;2377;51.734;8.950;2023-04-10T08:22:21;13.00;1.00
4727;DHT22;2377;51.734;8.950;2023-04-10T08:24:48;13.10;1.00
4727;DHT22;2377;51.734;8.950;2023-04-10T08:27:15;13.30;1.00
4727;DHT22;2377;51.734;8.950;2023-04-10T08:29:42;13.50;1.00
4727;DHT22;2377;51.734;8.950;2023-04-10T08:32:09;13.60;1.00
4727;DHT22;2377;51.734;8.950;2023-04-10T08:34:36;13.60;1.00
4727;DHT22;2377;51.734;8.950;2023-04-10T08:37:06;13.80;1.00
4727;DHT22;2377;51.734;8.950;2023-04-10T08:39:34;13.80;1.00
4727;DHT22;2377;51.734;8.950;2023-04-10T08:42:01;13.80;1.00
4727;DHT22;2377;51.734;8.950;2023-04-10T08:44:29;14.00;1.00
4727;DHT22;2377;51.734;8.950;2023-04-10T08:46:58;14.10;1.00
4727;DHT22;2377;51.734;8.950;2023-04-10T08:49:30;14.20;1.00
4727;DHT22;2377;51.734;8.950;2023-04-10T08:52:07;14.30;1.00
4727;DHT22;2377;51.734;8.950;2023-04-10T08:54:37;14.40;1.00
4727;DHT22;2377;51.734;8.950;2023-04-10T08:57:06;14.50;1.00
4727;DHT22;2377;51.734;8.950;2023-04-10T08:59:34;14.60;1.00
4727;DHT22;2377;51.734;8.950;2023-04-10T09:02:01;14.80;1.00
4727;DHT22;2377;51.734;8.950;2023-04-10T09:04:28;14.90;1.00
4727;DHT22;2377;51.734;8.950;2023-04-10T09:06:56;15.00;1.00
4727;DHT22;2377;51.734;8.950;2023-04-10T09:09:24;15.10;1.00
4727;DHT22;2377;51.734;8.950;2023-04-10T09:11:59;15.10;1.00
4727;DHT22;2377;51.734;8.950;2023-04-10T09:14:29;15.10;1.00
4727;DHT22;2377;51.734;8.950;2023-04-10T09:17:11;15.30;1.00
4727;DHT22;2377;51.734;8.950;2023-04-10T09:19:39;15.40;1.00
4727;DHT22;2377;51.734;8.950;2023-04-10T09:22:07;15.60;1.00
4727;DHT22;2377;51.734;8.950;2023-04-10T09:24:39;15.60;1.00
4727;DHT22;2377;51.734;8.950;2023-04-10T09:27:08;15.80;1.00
4727;DHT22;2377;51.734;8.950;2023-04-10T09:29:41;15.80;1.00
4727;DHT22;2377;51.734;8.950;2023-04-10T09:32:10;15.80;1.00
4727;DHT22;2377;51.734;8.950;2023-04-10T09:34:51;15.80;1.00
4727;DHT22;2377;51.734;8.950;2023-04-10T09:37:21;16.00;1.00
4727;DHT22;2377;51.734;8.950;2023-04-10T09:39:49;16.00;1.00
4727;DHT22;2377;51.734;8.950;2023-04-10T09:42:29;15.90;1.00
4727;DHT22;2377;51.734;8.950;2023-04-10T09:44:57;16.00;1.00
4727;DHT22;2377;51.734;8.950;2023-04-10T09:47:24;16.00;1.00
4727;DHT22;2377;51.734;8.950;2023-04-10T09:49:53;16.10;1.00
4727;DHT22;2377;51.734;8.950;2023-04-10T09:52:22;16.10;1.00
4727;DHT22;2377;51.734;8.950;2023-04-10T09:54:52;16.10;1.00
4727;DHT22;2377;51.734;8.950;2023-04-10T09:57:21;16.10;1.00
4727;DHT22;2377;51.734;8.950;2023-04-10T09:59:51;16.20;1.00
4727;DHT22;2377;51.734;8.950;2023-04-10T10:02:21;16.20;1.00
4727;DHT22;2377;51.734;8.950;2023-04-10T10:04:49;16.20;1.00
4727;DHT22;2377;51.734;8.950;2023-04-10T10:07:19;16.10;99.90
4727;DHT22;2377;51.734;8.950;2023-04-10T10:09:49;16.10;1.00
4727;DHT22;2377;51.734;8.950;2023-04-10T10:12:25;16.10;1.00
4727;DHT22;2377;51.734;8.950;2023-04-10T10:15:02;16.20;1.00
4727;DHT22;2377;51.734;8.950;2023-04-10T10:17:44;16.30;1.00
4727;DHT22;2377;51.734;8.950;2023-04-10T10:20:21;16.30;1.00
4727;DHT22;2377;51.734;8.950;2023-04-10T10:22:51;16.40;1.00
4727;DHT22;2377;51.734;8.950;2023-04-10T10:25:20;16.30;1.00
4727;DHT22;2377;51.734;8.950;2023-04-10T10:27:51;16.40;1.00
4727;DHT22;2377;51.734;8.950;2023-04-10T10:30:19;16.50;99.90
4727;DHT22;2377;51.734;8.950;2023-04-10T10:32:48;16.40;1.00
4727;DHT22;2377;51.734;8.950;2023-04-10T10:35:16;16.30;1.00
4727;DHT22;2377;51.734;8.950;2023-04-10T10:37:44;16.50;1.00
4727;DHT22;2377;51.734;8.950;2023-04-10T10:40:16;16.50;1.00
4727;DHT22;2377;51.734;8.950;2023-04-10T10:42:55;16.60;1.00
4727;DHT22;2377;51.734;8.950;2023-04-10T10:45:33;16.80;99.90
4727;DHT22;2377;51.734;8.950;2023-04-10T10:48:06;16.60;99.90
4727;DHT22;2377;51.734;8.950;2023-04-10T10:50:50;16.60;1.00
4727;DHT22;2377;51.734;8.950;2023-04-10T10:53:38;16.70;99.90
4727;DHT22;2377;51.734;8.950;2023-04-10T10:56:33;16.60;99.90
4727;DHT22;2377;51.734;8.950;2023-04-10T10:59:02;16.60;99.90
4727;DHT22;2377;51.734;8.950;2023-04-10T11:01:30;16.60;1.00
4727;DHT22;2377;51.734;8.950;2023-04-10T11:03:57;16.50;1.00
4727;DHT22;2377;51.734;8.950;2023-04-10T11:06:48;16.50;99.90
4727;DHT22;2377;51.734;8.950;2023-04-10T11:09:43;16.40;99.90
4727;DHT22;2377;51.734;8.950;2023-04-10T11:12:14;16.30;1.00
4727;DHT22;2377;51.734;8.950;2023-04-10T11:14:43;16.30;1.00
4727;DHT22;2377;51.734;8.950;2023-04-10T11:17:11;16.50;99.90
4727;DHT22;2377;51.734;8.950;2023-04-10T11:19:56;16.50;99.90
4727;DHT22;2377;51.734;8.950;2023-04-10T11:22:25;16.50;1.00
4727;DHT22;2377;51.734;8.950;2023-04-10T11:24:54;16.60;99.90
4727;DHT22;2377;51.734;8.950;2023-04-10T11:27:39;16.60;1.00
4727;DHT22;2377;51.734;8.950;2023-04-10T11:30:29;16.80;99.90
4727;DHT22;2377;51.734;8.950;2023-04-10T11:32:58;16.90;99.90
4727;DHT22;2377;51.734;8.950;2023-04-10T11:35:26;16.90;99.90
4727;DHT22;2377;51.734;8.950;2023-04-10T11:38:15;17.00;99.90
4727;DHT22;2377;51.734;8.950;2023-04-10T11:40:57;17.00;99.90
4727;DHT22;2377;51.734;8.950;2023-04-10T11:43:26;17.00;99.90
4727;DHT22;2377;51.734;8.950;2023-04-10T11:46:02;17.00;99.90
4727;DHT22;2377;51.734;8.950;2023-04-10T11:48:30;16.80;99.90
4727;DHT22;2377;51.734;8.950;2023-04-10T11:50:57;16.80;99.90
4727;DHT22;2377;51.734;8.950;2023-04-10T11:53:26;16.80;99.90
4727;DHT22;2377;51.734;8.950;2023-04-10T11:55:54;16.80;99.90
4727;DHT22;2377;51.734;8.950;2023-04-10T11:58:23;16.60;99.90
4727;DHT22;2377;51.734;8.950;2023-04-10T12:00:58;16.80;99.90
4727;DHT22;2377;51.734;8.950;2023-04-10T12:03:37;16.80;99.90
4727;DHT22;2377;51.734;8.950;2023-04-10T12:06:09;16.80;99.90
4727;DHT22;2377;51.734;8.950;2023-04-10T12:08:39;16.80;99.90
4727;DHT22;2377;51.734;8.950;2023-04-10T12:11:09;16.80;99.90
4727;DHT22;2377;51.734;8.950;2023-04-10T12:13:37;16.80;99.90
4727;DHT22;2377;51.734;8.950;2023-04-10T12:16:07;16.70;99.90
4727;DHT22;2377;51.734;8.950;2023-04-10T12:18:36;16.60;99.90
4727;DHT22;2377;51.734;8.950;2023-04-10T12:21:05;16.70;99.90
4727;DHT22;2377;51.734;8.950;2023-04-10T12:23:34;16.80;99.90
4727;DHT22;2377;51.734;8.950;2023-04-10T12:26:09;16.80;1.00
4727;DHT22;2377;51.734;8.950;2023-04-10T12:28:38;16.80;99.90
4727;DHT22;2377;51.734;8.950;2023-04-10T12:31:07;17.00;99.90
4727;DHT22;2377;51.734;8.950;2023-04-10T12:33:35;16.90;99.90
4727;DHT22;2377;51.734;8.950;2023-04-10T12:36:03;17.00;99.90
4727;DHT22;2377;51.734;8.950;2023-04-10T12:38:40;17.10;99.90
4727;DHT22;2377;51.734;8.950;2023-04-10T12:41:10;17.00;99.90
4727;DHT22;2377;51.734;8.950;2023-04-10T12:43:39;17.00;99.90
4727;DHT22;2377;51.734;8.950;2023-04-10T12:46:08;17.00;99.90
4727;DHT22;2377;51.734;8.950;2023-04-10T12:48:37;17.00;99.90
4727;DHT22;2377;51.734;8.950;2023-04-10T12:51:04;17.10;99.90
4727;DHT22;2377;51.734;8.950;2023-04-10T12:53:41;17.30;99.90
4727;DHT22;2377;51.734;8.950;2023-04-10T12:56:09;17.30;99.90
4727;DHT22;2377;51.734;8.950;2023-04-10T12:58:37;17.50;99.90
4727;DHT22;2377;51.734;8.950;2023-04-10T13:01:05;17.50;99.90
4727;DHT22;2377;51.734;8.950;2023-04-10T13:03:35;17.60;99.90
4727;DHT22;2377;51.734;8.950;2023-04-10T13:06:04;17.60;99.90
4727;DHT22;2377;51.734;8.950;2023-04-10T13:08:32;17.60;99.90
4727;DHT22;2377;51.734;8.950;2023-04-10T13:11:00;17.60;99.90
4727;DHT22;2377;51.734;8.950;2023-04-10T13:13:28;17.70;99.90
4727;DHT22;2377;51.734;8.950;2023-04-10T13:15:57;17.60;99.90
4727;DHT22;2377;51.734;8.950;2023-04-10T13:18:24;17.70;99.90
4727;DHT22;2377;51.734;8.950;2023-04-10T13:20:52;17.70;99.90
4727;DHT22;2377;51.734;8.950;2023-04-10T13:23:19;17.80;99.90
4727;DHT22;2377;51.734;8.950;2023-04-10T13:25:46;17.80;99.90
4727;DHT22;2377;51.734;8.950;2023-04-10T13:28:13;17.80;99.90
4727;DHT22;2377;51.734;8.950;2023-04-10T13:30:41;17.80;99.90
4727;DHT22;2377;51.734;8.950;2023-04-10T13:33:08;17.70;99.90
4727;DHT22;2377;51.734;8.950;2023-04-10T13:35:38;17.60;99.90
4727;DHT22;2377;51.734;8.950;2023-04-10T13:38:06;17.50;99.90
4727;DHT22;2377;51.734;8.950;2023-04-10T13:40:36;17.40;99.90
4727;DHT22;2377;51.734;8.950;2023-04-10T13:43:03;17.40;99.90
4727;DHT22;2377;51.734;8.950;2023-04-10T13:45:30;17.50;99.90
4727;DHT22;2377;51.734;8.950;2023-04-10T13:47:57;17.50;99.90
4727;DHT22;2377;51.734;8.950;2023-04-10T13:50:24;17.60;99.90
4727;DHT22;2377;51.734;8.950;2023-04-10T13:52:51;17.60;99.90
4727;DHT22;2377;51.734;8.950;2023-04-10T13:55:20;17.70;99.90
4727;DHT22;2377;51.734;8.950;2023-04-10T13:57:46;17.70;99.90
4727;DHT22;2377;51.734;8.950;2023-04-10T14:00:14;17.80;99.90
4727;DHT22;2377;51.734;8.950;2023-04-10T14:02:41;17.80;99.90
4727;DHT22;2377;51.734;8.950;2023-04-10T14:05:09;17.80;99.90
4727;DHT22;2377;51.734;8.950;2023-04-10T14:07:37;17.70;99.90
4727;DHT22;2377;51.734;8.950;2023-04-10T14:10:05;17.70;99.90
4727;DHT22;2377;51.734;8.950;2023-04-10T14:12:34;17.80;99.90
4727;DHT22;2377;51.734;8.950;2023-04-10T14:15:01;17.80;99.90
4727;DHT22;2377;51.734;8.950;2023-04-10T14:17:28;17.90;99.90
4727;DHT22;2377;51.734;8.950;2023-04-10T14:19:55;17.80;99.90
4727;DHT22;2377;51.734;8.950;2023-04-10T14:22:22;17.80;99.90
4727;DHT22;2377;51.734;8.950;2023-04-10T14:24:49;17.80;99.90
4727;DHT22;2377;51.734;8.950;2023-04-10T14:27:15;17.90;99.90
4727;DHT22;2377;51.734;8.950;2023-04-10T14:29:44;17.90;99.90
4727;DHT22;2377;51.734;8.950;2023-04-10T14:32:10;18.00;99.90
4727;DHT22;2377;51.734;8.950;2023-04-10T14:34:37;17.80;99.90
4727;DHT22;2377;51.734;8.950;2023-04-10T14:37:04;17.80;99.90
4727;DHT22;2377;51.734;8.950;2023-04-10T14:39:31;17.80;99.90
4727;DHT22;2377;51.734;8.950;2023-04-10T14:41:58;17.60;99.90
4727;DHT22;2377;51.734;8.950;2023-04-10T14:44:28;17.60;99.90
4727;DHT22;2377;51.734;8.950;2023-04-10T14:46:57;17.60;99.90
4727;DHT22;2377;51.734;8.950;2023-04-10T14:49:24;17.60;99.90
4727;DHT22;2377;51.734;8.950;2023-04-10T14:51:51;17.60;99.90
4727;DHT22;2377;51.734;8.950;2023-04-10T14:54:18;17.80;99.90
4727;DHT22;2377;51.734;8.950;2023-04-10T14:56:48;17.80;99.90
4727;DHT22;2377;51.734;8.950;2023-04-10T14:59:15;17.80;99.90
4727;DHT22;2377;51.734;8.950;2023-04-10T15:01:42;18.00;99.90
4727;DHT22;2377;51.734;8.950;2023-04-10T15:04:11;18.00;99.90
4727;DHT22;2377;51.734;8.950;2023-04-10T15:06:37;18.00;99.90
4727;DHT22;2377;51.734;8.950;2023-04-10T15:09:04;17.90;99.90
4727;DHT22;2377;51.734;8.950;2023-04-10T15:11:31;17.80;99.90
4727;DHT22;2377;51.734;8.950;2023-04-10T15:13:58;17.80;99.90
4727;DHT22;2377;51.734;8.950;2023-04-10T15:16:26;17.70;99.90
4727;DHT22;2377;51.734;8.950;2023-04-10T15:18:54;17.60;99.90
4727;DHT22;2377;51.734;8.950;2023-04-10T15:21:22;17.60;99.90
4727;DHT22;2377;51.734;8.950;2023-04-10T15:23:49;17.60;99.90
4727;DHT22;2377;51.734;8.950;2023-04-10T15:26:16;17.60;99.90
4727;DHT22;2377;51.734;8.950;2023-04-10T15:28:43;17.50;99.90
4727;DHT22;2377;51.734;8.950;2023-04-10T15:31:10;17.50;99.90
4727;DHT22;2377;51.734;8.950;2023-04-10T15:33:37;17.50;99.90
4727;DHT22;2377;51.734;8.950;2023-04-10T15:36:06;17.50;99.90
4727;DHT22;2377;51.734;8.950;2023-04-10T15:38:35;17.30;99.90
4727;DHT22;2377;51.734;8.950;2023-04-10T15:41:07;17.20;99.90
4727;DHT22;2377;51.734;8.950;2023-04-10T15:43:35;17.10;99.90
4727;DHT22;2377;51.734;8.950;2023-04-10T15:46:03;17.10;99.90
4727;DHT22;2377;51.734;8.950;2023-04-10T15:48:30;17.10;99.90
4727;DHT22;2377;51.734;8.950;2023-04-10T15:50:58;17.10;99.90
4727;DHT22;2377;51.734;8.950;2023-04-10T15:53:28;17.10;99.90
4727;DHT22;2377;51.734;8.950;2023-04-10T15:55:57;17.10;99.90
4727;DHT22;2377;51.734;8.950;2023-04-10T15:58:24;17.10;99.90
4727;DHT22;2377;51.734;8.950;2023-04-10T16:00:51;17.00;99.90
4727;DHT22;2377;51.734;8.950;2023-04-10T16:03:18;17.00;99.90
4727;DHT22;2377;51.734;8.950;2023-04-10T16:05:45;17.00;99.90
4727;DHT22;2377;51.734;8.950;2023-04-10T16:08:12;17.00;99.90
4727;DHT22;2377;51.734;8.950;2023-04-10T16:10:39;17.10;99.90
4727;DHT22;2377;51.734;8.950;2023-04-10T16:13:07;17.20;99.90
4727;DHT22;2377;51.734;8.950;2023-04-10T16:15:34;17.20;99.90
4727;DHT22;2377;51.734;8.950;2023-04-10T16:18:02;17.20;99.90
4727;DHT22;2377;51.734;8.950;2023-04-10T16:20:29;17.10;99.90
4727;DHT22;2377;51.734;8.950;2023-04-10T16:22:57;17.00;99.90
4727;DHT22;2377;51.734;8.950;2023-04-10T16:25:25;16.90;99.90
4727;DHT22;2377;51.734;8.950;2023-04-10T16:27:53;16.80;99.90